Time;durP1;ratioP1;P1;durP2;ratioP2;P2;SDS_P1;SDS_P2;PMS_P1;PMS_P2;Temp;Humidity;BMP_temperature;BMP_pressure;BME280_temperature;BME280_humidity;BME280_pressure;Samples;Min_cycle;Max_cycle;Signal;HPM_P1;HPM_P2
2022/07/07 00:02:20;;;;;;;9.13;5.97;;;;;;;17.19;93.87;101889.94;5246204;28;20079;-71
2022/07/07 00:04:52;;;;;;;9.32;5.75;;;;;;;17.23;93.36;101891.38;5242360;28;20048;-72
2022/07/07 00:07:23;;;;;;;8.15;5.93;;;;;;;17.18;93.72;101883.72;5247593;28;20472;-71
2022/07/07 00:09:54;;;;;;;10.13;6.25;;;;;;;17.20;93.86;101880.84;5244780;28;20458;-71
2022/07/07 00:12:26;;;;;;;6.70;5.22;;;;;;;17.20;93.60;101878.16;5248924;28;20029;-71
2022/07/07 00:14:57;;;;;;;9.43;5.90;;;;;;;17.20;93.53;101880.84;5243035;28;20029;-71
2022/07/07 00:17:29;;;;;;;7.53;5.53;;;;;;;17.20;93.99;101880.84;5255731;28;20052;-71
2022/07/07 00:20:00;;;;;;;7.75;5.82;;;;;;;17.21;93.68;101878.03;5243430;28;20114;-71
2022/07/07 00:22:31;;;;;;;8.75;5.65;;;;;;;17.21;93.90;101877.19;5245375;28;20107;-71
2022/07/07 00:25:05;;;;;;;6.88;5.45;;;;;;;17.20;93.26;101876.34;5237538;28;20025;-70
2022/07/07 00:27:37;;;;;;;8.80;5.63;;;;;;;17.21;93.65;101866.41;5243782;28;20537;-71
2022/07/07 00:30:08;;;;;;;8.25;5.65;;;;;;;17.21;93.85;101869.09;5235012;28;20353;-71
2022/07/07 00:32:40;;;;;;;8.40;5.20;;;;;;;17.21;93.21;101861.00;5238393;28;20025;-71
2022/07/07 00:35:11;;;;;;;8.15;5.28;;;;;;;17.22;93.38;101852.78;5247863;28;20028;-71
2022/07/07 00:37:43;;;;;;;7.57;5.20;;;;;;;17.22;93.14;101846.50;5241932;28;20459;-71
2022/07/07 00:40:14;;;;;;;9.45;4.97;;;;;;;17.22;93.22;101841.13;5237523;28;20060;-71
2022/07/07 00:42:45;;;;;;;7.22;5.10;;;;;;;17.22;93.38;101841.13;5244069;28;20033;-71
2022/07/07 00:45:17;;;;;;;8.80;5.20;;;;;;;17.20;93.47;101837.69;5237402;28;20028;-71
2022/07/07 00:47:48;;;;;;;7.28;5.07;;;;;;;17.21;92.92;101832.19;5246535;28;20522;-71
2022/07/07 00:50:19;;;;;;;7.88;5.10;;;;;;;17.20;93.62;101835.88;5247674;28;20039;-71
2022/07/07 00:52:51;;;;;;;8.57;5.22;;;;;;;17.20;94.26;101835.00;5250627;28;20398;-72
2022/07/07 00:55:23;;;;;;;7.30;4.95;;;;;;;17.20;93.93;101826.91;5248517;28;20025;-71
2022/07/07 00:57:54;;;;;;;8.60;4.95;;;;;;;17.21;93.48;101828.63;5242575;28;20080;-71
2022/07/07 01:00:26;;;;;;;8.13;5.00;;;;;;;17.21;93.97;101821.38;5241403;28;20494;-71
2022/07/07 01:02:57;;;;;;;7.25;4.25;;;;;;;17.20;93.98;101822.41;5248196;28;20028;-71
2022/07/07 01:05:30;;;;;;;6.30;4.75;;;;;;;17.22;93.91;101828.50;5241119;28;20080;-71
2022/07/07 01:08:03;;;;;;;8.13;4.68;;;;;;;17.22;94.21;101830.31;5247452;28;20060;-71
2022/07/07 01:10:35;;;;;;;6.90;4.47;;;;;;;17.22;94.43;101833.03;5243359;28;20468;-71
2022/07/07 01:13:07;;;;;;;6.53;4.75;;;;;;;17.23;94.11;101827.50;5244488;28;20034;-71
2022/07/07 01:15:38;;;;;;;7.70;4.30;;;;;;;17.25;93.64;101824.66;5239312;28;20029;-71
2022/07/07 01:18:10;;;;;;;6.43;4.18;;;;;;;17.25;93.97;101819.28;5246025;28;20017;-70
2022/07/07 01:20:45;;;;;;;8.38;4.68;;;;;;;17.27;93.49;101833.47;5247786;28;20021;-71
2022/07/07 01:23:17;;;;;;;6.68;4.28;;;;;;;17.27;94.20;101827.25;5240065;28;20025;-72
2022/07/07 01:25:48;;;;;;;8.05;4.43;;;;;;;17.29;94.32;101825.25;5235684;28;20083;-71
2022/07/07 01:28:19;;;;;;;7.10;4.38;;;;;;;17.28;94.46;101816.31;5239423;28;20037;-71
2022/07/07 01:30:50;;;;;;;6.43;4.20;;;;;;;17.28;94.70;101819.00;5238970;28;20483;-71
2022/07/07 01:33:22;;;;;;;7.28;4.55;;;;;;;17.34;94.29;101823.84;5242086;28;20348;-71
2022/07/07 01:35:53;;;;;;;7.32;4.15;;;;;;;17.31;94.01;101815.19;5236576;28;20487;-71
2022/07/07 01:38:25;;;;;;;9.43;4.55;;;;;;;17.35;93.95;101812.06;5243006;28;20550;-71
2022/07/07 01:40:56;;;;;;;6.25;4.32;;;;;;;17.31;94.60;101807.09;5237780;28;20030;-71
2022/07/07 01:43:27;;;;;;;6.07;4.15;;;;;;;17.31;94.64;101802.53;5242804;28;20029;-71
2022/07/07 01:45:58;;;;;;;7.13;4.43;;;;;;;17.29;94.97;101799.13;5238858;28;20029;-71
2022/07/07 01:48:30;;;;;;;7.97;5.07;;;;;;;17.29;94.99;101793.72;5235844;28;20037;-71
2022/07/07 01:51:01;;;;;;;6.35;4.50;;;;;;;17.30;94.93;101795.44;5245916;28;20478;-71
2022/07/07 01:53:32;;;;;;;7.03;4.88;;;;;;;17.27;95.41;101793.00;5247681;28;20380;-71
2022/07/07 01:56:04;;;;;;;7.53;4.53;;;;;;;17.32;95.27;101800.72;5247979;28;20107;-71
2022/07/07 01:58:36;;;;;;;6.53;4.40;;;;;;;17.32;95.44;101785.38;5251814;28;20076;-71
2022/07/07 02:01:07;;;;;;;8.32;5.03;;;;;;;17.32;95.65;101792.63;5235778;28;20033;-71
2022/07/07 02:03:38;;;;;;;6.20;4.53;;;;;;;17.29;95.83;101799.13;5245642;28;20104;-71
2022/07/07 02:06:10;;;;;;;9.38;4.40;;;;;;;17.27;96.49;101795.72;5236402;28;20033;-71
2022/07/07 02:08:41;;;;;;;7.85;4.15;;;;;;;17.29;96.08;101799.13;5239077;28;20068;-71
2022/07/07 02:11:12;;;;;;;7.93;4.22;;;;;;;17.31;96.67;101794.44;5252162;28;20021;-71
2022/07/07 02:13:49;;;;;;;7.50;4.57;;;;;;;17.25;96.69;101787.75;5258264;28;20483;-71
2022/07/07 02:16:23;;;;;;;10.25;4.55;;;;;;;17.30;96.72;101789.22;5253411;28;20044;-71
2022/07/07 02:19:00;;;;;;;8.70;4.55;;;;;;;17.28;97.39;101792.03;5260803;28;20499;-72
2022/07/07 02:21:32;;;;;;;6.88;4.20;;;;;;;17.29;97.20;101779.41;5242129;28;20052;-71
2022/07/07 02:24:04;;;;;;;8.93;4.75;;;;;;;17.30;97.43;101779.28;5251434;28;20029;-70
2022/07/07 02:26:35;;;;;;;7.90;3.92;;;;;;;17.32;97.01;101784.53;5242320;28;20021;-72
2022/07/07 02:29:06;;;;;;;10.38;3.88;;;;;;;17.34;97.33;101787.94;5240842;28;20029;-71
2022/07/07 02:31:38;;;;;;;6.93;3.67;;;;;;;17.35;96.77;101785.06;5244125;28;20055;-72
2022/07/07 02:34:09;;;;;;;7.32;4.05;;;;;;;17.35;97.30;101779.69;5242033;28;20061;-71
2022/07/07 02:36:41;;;;;;;6.40;3.53;;;;;;;17.37;97.78;101782.25;5250136;28;20419;-71
2022/07/07 02:39:12;;;;;;;9.93;3.97;;;;;;;17.36;97.70;101786.81;5252235;28;20426;-71
2022/07/07 02:41:43;;;;;;;5.38;2.97;;;;;;;17.41;98.44;101773.75;5241537;28;20036;-71
2022/07/07 02:44:14;;;;;;;7.10;3.45;;;;;;;17.38;97.95;101782.13;5242349;28;20029;-71
2022/07/07 02:46:46;;;;;;;8.80;3.60;;;;;;;17.42;97.75;101780.84;5253192;28;20036;-71
2022/07/07 02:49:17;;;;;;;8.38;3.42;;;;;;;17.38;97.83;101781.28;5258127;28;20150;-71
2022/07/07 02:51:48;;;;;;;7.15;3.83;;;;;;;17.38;98.00;101782.13;5248783;28;20049;-71
2022/07/07 02:54:20;;;;;;;6.65;3.33;;;;;;;17.39;97.51;101774.88;5259486;28;20033;-71
2022/07/07 02:56:51;;;;;;;8.57;3.47;;;;;;;17.40;96.98;101774.72;5244161;28;20033;-71
2022/07/07 02:59:22;;;;;;;5.65;3.15;;;;;;;17.40;97.42;101780.13;5251348;28;20029;-71
2022/07/07 03:01:54;;;;;;;5.53;3.15;;;;;;;17.43;97.31;101789.78;5241397;28;20033;-71
2022/07/07 03:04:25;;;;;;;7.72;3.75;;;;;;;17.38;98.25;101775.88;5243416;28;20092;-71
2022/07/07 03:06:56;;;;;;;6.78;3.28;;;;;;;17.40;98.05;101779.28;5242840;28;20087;-72
2022/07/07 03:09:27;;;;;;;6.55;3.08;;;;;;;17.41;98.17;101784.53;5246638;28;20029;-72
2022/07/07 03:11:59;;;;;;;5.55;3.42;;;;;;;17.41;98.70;101780.97;5250999;28;20049;-71
2022/07/07 03:14:30;;;;;;;7.90;3.40;;;;;;;17.38;99.92;101792.91;5249125;28;20033;-71
2022/07/07 03:17:01;;;;;;;10.05;3.60;;;;;;;17.22;100.00;101792.56;5248910;28;20013;-71
2022/07/07 03:19:34;;;;;;;5.55;3.20;;;;;;;17.00;100.00;101807.97;5241831;28;20104;-70
2022/07/07 03:22:06;;;;;;;7.60;3.75;;;;;;;16.77;100.00;101809.13;5244535;28;20098;-70
2022/07/07 03:24:37;;;;;;;6.00;3.13;;;;;;;16.64;100.00;101799.44;5248763;28;20025;-70
2022/07/07 03:27:08;;;;;;;5.40;2.80;;;;;;;16.54;100.00;101805.72;5238559;28;20044;-70
2022/07/07 03:29:39;;;;;;;5.28;2.55;;;;;;;16.44;100.00;101797.59;5248723;28;20108;-70
2022/07/07 03:32:11;;;;;;;5.50;2.05;;;;;;;16.37;100.00;101801.81;5247731;28;20495;-70
2022/07/07 03:34:43;;;;;;;6.68;2.63;;;;;;;16.15;100.00;101806.34;5249682;28;20040;-71
2022/07/07 03:37:14;;;;;;;4.13;2.10;;;;;;;15.95;100.00;101808.00;5239067;28;20033;-70
2022/07/07 03:39:45;;;;;;;4.55;2.40;;;;;;;15.86;100.00;101814.19;5246788;28;20029;-70
2022/07/07 03:42:17;;;;;;;4.32;2.60;;;;;;;15.72;100.00;101809.88;5243115;28;20026;-70
2022/07/07 03:44:48;;;;;;;5.45;2.95;;;;;;;15.68;100.00;101808.44;5239148;28;20091;-69
2022/07/07 03:47:19;;;;;;;7.22;3.17;;;;;;;15.59;100.00;101806.50;5239264;28;20060;-70
2022/07/07 03:49:51;;;;;;;4.30;3.33;;;;;;;15.50;100.00;101800.06;5244290;28;20032;-70
2022/07/07 03:52:22;;;;;;;4.32;3.25;;;;;;;15.48;100.00;101813.63;5241595;28;20025;-70
2022/07/07 03:54:53;;;;;;;6.55;3.60;;;;;;;15.47;100.00;101806.56;5244188;28;20021;-69
2022/07/07 03:57:25;;;;;;;5.40;3.30;;;;;;;15.46;100.00;101801.31;5253100;28;20503;-70
2022/07/07 03:59:56;;;;;;;5.13;3.50;;;;;;;15.44;100.00;101797.88;5248083;28;20372;-70
2022/07/07 04:02:27;;;;;;;7.78;4.28;;;;;;;15.46;100.00;101802.16;5256815;28;20031;-70
2022/07/07 04:04:58;;;;;;;6.40;4.32;;;;;;;15.43;100.00;101802.38;5244533;28;20041;-69
2022/07/07 04:07:30;;;;;;;4.95;4.30;;;;;;;15.49;100.00;101799.22;5237476;28;20274;-70
2022/07/07 04:10:02;;;;;;;5.30;4.53;;;;;;;15.48;100.00;101793.97;5244055;28;20037;-70
2022/07/07 04:12:33;;;;;;;5.13;4.63;;;;;;;15.46;100.00;101786.00;5252610;28;20534;-69
2022/07/07 04:15:05;;;;;;;6.88;4.80;;;;;;;15.47;100.00;101784.16;5251368;28;20033;-70
2022/07/07 04:17:36;;;;;;;7.90;4.60;;;;;;;15.54;100.00;101776.47;5240566;28;20028;-70
2022/07/07 04:20:08;;;;;;;5.53;4.60;;;;;;;15.62;100.00;101773.97;5247290;28;20748;-70
2022/07/07 04:22:39;;;;;;;7.20;4.97;;;;;;;15.60;100.00;101784.03;5240735;28;20384;-69
2022/07/07 04:25:11;;;;;;;7.13;4.75;;;;;;;15.65;100.00;101779.97;5245311;28;20021;-70
2022/07/07 04:27:42;;;;;;;5.55;4.28;;;;;;;15.71;100.00;101789.38;5248938;28;20054;-69
2022/07/07 04:30:13;;;;;;;6.47;4.80;;;;;;;15.69;100.00;101777.88;5237756;28;20082;-69
2022/07/07 04:32:45;;;;;;;7.05;4.70;;;;;;;15.69;100.00;101781.41;5237440;28;20037;-69
2022/07/07 04:35:16;;;;;;;5.75;4.28;;;;;;;15.78;100.00;101776.28;5239144;28;20029;-69
2022/07/07 04:37:47;;;;;;;5.40;3.78;;;;;;;15.79;100.00;101781.53;5241028;28;20063;-69
2022/07/07 04:40:19;;;;;;;5.78;3.88;;;;;;;15.81;100.00;101782.25;5238940;28;20036;-69
2022/07/07 04:42:50;;;;;;;6.32;3.97;;;;;;;15.84;100.00;101795.47;5245989;28;20057;-69
2022/07/07 04:45:21;;;;;;;6.22;4.30;;;;;;;15.81;100.00;101811.00;5234493;28;20029;-69
2022/07/07 04:47:52;;;;;;;7.30;4.13;;;;;;;15.77;100.00;101815.78;5245704;28;20032;-69
2022/07/07 04:50:24;;;;;;;5.88;3.28;;;;;;;15.68;100.00;101816.50;5247605;28;20066;-69
2022/07/07 04:52:55;;;;;;;6.95;3.35;;;;;;;15.62;100.00;101819.72;5235733;28;20025;-69
2022/07/07 04:55:26;;;;;;;6.15;2.83;;;;;;;15.54;100.00;101824.88;5246024;28;20031;-69
2022/07/07 04:57:58;;;;;;;4.90;2.08;;;;;;;15.43;100.00;101828.44;5256484;28;20048;-69
2022/07/07 05:00:29;;;;;;;3.85;2.17;;;;;;;15.37;100.00;101812.81;5247975;28;20021;-70
2022/07/07 05:03:00;;;;;;;4.35;1.77;;;;;;;15.34;100.00;101821.97;5236695;28;20025;-70
2022/07/07 05:05:31;;;;;;;5.38;1.60;;;;;;;15.31;100.00;101819.53;5248335;28;20057;-70
2022/07/07 05:08:03;;;;;;;6.85;1.70;;;;;;;15.26;100.00;101821.72;5235818;28;20022;-70
2022/07/07 05:10:34;;;;;;;4.95;1.50;;;;;;;15.23;100.00;101830.06;5245115;28;20063;-70
2022/07/07 05:13:06;;;;;;;3.22;1.45;;;;;;;15.26;100.00;101837.88;5242405;28;20043;-70
2022/07/07 05:15:37;;;;;;;4.13;1.33;;;;;;;15.24;100.00;101831.75;5241545;28;20747;-69
2022/07/07 05:18:09;;;;;;;4.65;1.45;;;;;;;15.29;100.00;101843.84;5237873;28;20108;-70
2022/07/07 05:20:40;;;;;;;6.18;1.77;;;;;;;15.30;100.00;101847.38;5239065;28;20415;-70
2022/07/07 05:23:11;;;;;;;2.85;1.40;;;;;;;15.35;100.00;101842.50;5242135;28;20132;-69
2022/07/07 05:25:43;;;;;;;6.20;2.25;;;;;;;15.39;100.00;101859.25;5241654;28;20053;-69
2022/07/07 05:28:14;;;;;;;6.57;1.73;;;;;;;15.41;100.00;101858.13;5250724;28;20384;-70
2022/07/07 05:30:45;;;;;;;8.20;2.05;;;;;;;15.42;100.00;101848.25;5239373;28;20401;-70
2022/07/07 05:33:17;;;;;;;3.72;1.63;;;;;;;15.50;100.00;101856.53;5248352;28;20379;-69
2022/07/07 05:35:48;;;;;;;4.60;1.75;;;;;;;15.66;100.00;101861.53;5246881;28;20052;-69
2022/07/07 05:38:19;;;;;;;5.30;1.50;;;;;;;15.68;100.00;101852.34;5242977;28;20032;-69
2022/07/07 05:40:51;;;;;;;6.70;1.55;;;;;;;15.80;100.00;101861.28;5243717;28;20061;-69
2022/07/07 05:43:22;;;;;;;4.78;1.48;;;;;;;15.88;100.00;101868.72;5239852;28;20029;-69
2022/07/07 05:45:54;;;;;;;5.18;1.58;;;;;;;16.00;100.00;101872.22;5237097;28;20033;-69
2022/07/07 05:48:26;;;;;;;7.13;1.65;;;;;;;16.12;100.00;101873.03;5246507;28;20036;-69
2022/07/07 05:50:57;;;;;;;6.60;1.50;;;;;;;16.24;100.00;101874.69;5242922;28;20025;-69
2022/07/07 05:53:28;;;;;;;7.97;1.63;;;;;;;16.27;100.00;101885.22;5247383;28;20406;-69
2022/07/07 05:56:00;;;;;;;5.72;1.88;;;;;;;16.46;100.00;101884.53;5234869;28;20029;-69
2022/07/07 05:58:31;;;;;;;5.18;1.30;;;;;;;16.47;100.00;101894.28;5238360;28;20038;-69
2022/07/07 06:01:03;;;;;;;6.22;1.20;;;;;;;16.39;100.00;101897.63;5236265;28;20049;-68
2022/07/07 06:03:34;;;;;;;5.50;1.30;;;;;;;16.33;100.00;101897.31;5247306;28;20416;-69
2022/07/07 06:06:06;;;;;;;6.03;1.55;;;;;;;16.12;100.00;101899.97;5242234;28;20472;-69
2022/07/07 06:08:37;;;;;;;6.00;1.35;;;;;;;15.94;100.00;101915.81;5240502;28;20037;-69
2022/07/07 06:11:08;;;;;;;6.03;1.58;;;;;;;15.81;100.00;101911.44;5250219;28;20029;-69
2022/07/07 06:13:40;;;;;;;6.53;1.70;;;;;;;15.84;100.00;101910.34;5256468;28;20025;-69
2022/07/07 06:16:11;;;;;;;3.97;1.20;;;;;;;15.91;100.00;101926.81;5237825;28;20029;-69
2022/07/07 06:18:42;;;;;;;6.30;1.30;;;;;;;16.04;100.00;101924.84;5241410;28;20095;-69
2022/07/07 06:21:14;;;;;;;5.15;1.40;;;;;;;16.15;100.00;101945.50;5244665;28;20037;-69
2022/07/07 06:23:45;;;;;;;7.70;1.45;;;;;;;16.26;100.00;101948.13;5245508;28;20115;-69
2022/07/07 06:26:16;;;;;;;7.28;1.52;;;;;;;16.30;100.00;101941.53;5244071;28;20036;-69
2022/07/07 06:28:47;;;;;;;6.85;1.38;;;;;;;16.30;100.00;101955.00;5243975;28;20034;-68
2022/07/07 06:31:19;;;;;;;8.30;1.40;;;;;;;16.43;100.00;101952.13;5241530;28;20029;-69
2022/07/07 06:33:50;;;;;;;8.93;1.65;;;;;;;16.37;100.00;101947.25;5241626;28;20048;-69
2022/07/07 06:36:21;;;;;;;7.25;1.50;;;;;;;16.41;100.00;101949.53;5247859;28;20471;-69
2022/07/07 06:38:53;;;;;;;8.73;1.95;;;;;;;16.48;99.81;101960.66;5247350;28;20017;-69
2022/07/07 06:41:33;;;;;;;9.68;2.17;;;;;;;16.62;100.00;101954.97;5237558;28;20040;-69
2022/07/07 06:44:06;;;;;;;11.57;1.30;;;;;;;16.67;99.65;101962.69;5242623;28;20386;-69
2022/07/07 06:46:37;;;;;;;9.93;1.45;;;;;;;16.80;98.63;101974.13;5236014;28;20021;-70
2022/07/07 06:49:08;;;;;;;7.47;1.40;;;;;;;16.88;98.74;101983.44;5242676;28;20030;-69
2022/07/07 06:51:40;;;;;;;9.35;1.63;;;;;;;16.94;97.58;101978.38;5236032;28;20032;-69
2022/07/07 06:54:11;;;;;;;8.43;1.40;;;;;;;16.70;95.70;101999.28;5248784;28;20037;-69
2022/07/07 06:56:42;;;;;;;10.63;1.50;;;;;;;16.45;100.00;102001.31;5235325;28;20036;-69
2022/07/07 06:59:15;;;;;;;7.47;1.40;;;;;;;16.21;98.38;102001.53;5240497;28;20037;-69
2022/07/07 07:01:46;;;;;;;6.47;1.13;;;;;;;16.12;100.00;101997.75;5238219;28;20512;-68
2022/07/07 07:04:17;;;;;;;6.07;1.50;;;;;;;16.06;100.00;101990.19;5250026;28;20033;-68
2022/07/07 07:06:48;;;;;;;6.55;1.10;;;;;;;16.22;100.00;102000.53;5253302;28;20059;-69
2022/07/07 07:09:20;;;;;;;9.10;1.63;;;;;;;16.43;100.00;101979.06;5239989;28;20517;-69
2022/07/07 07:11:51;;;;;;;5.57;1.30;;;;;;;16.63;100.00;101980.09;5251058;28;20139;-69
2022/07/07 07:14:23;;;;;;;5.57;1.40;;;;;;;16.59;98.26;101981.34;5248883;28;20108;-69
2022/07/07 07:16:54;;;;;;;5.88;1.25;;;;;;;16.57;97.53;101986.00;5238992;28;20026;-69
2022/07/07 07:19:25;;;;;;;7.03;1.25;;;;;;;16.71;97.15;101995.63;5237796;28;20021;-68
2022/07/07 07:21:57;;;;;;;6.03;1.20;;;;;;;16.73;96.63;101997.19;5239222;28;20034;-69
2022/07/07 07:24:28;;;;;;;4.40;0.90;;;;;;;16.77;95.60;101995.09;5248438;28;20029;-68
2022/07/07 07:26:59;;;;;;;9.45;1.27;;;;;;;16.89;96.01;102018.34;5241329;28;20080;-69
2022/07/07 07:29:30;;;;;;;7.22;1.48;;;;;;;17.02;95.58;101997.44;5238896;28;20037;-69
2022/07/07 07:32:02;;;;;;;6.10;1.27;;;;;;;17.05;90.27;102007.97;5240097;28;20099;-69
2022/07/07 07:34:34;;;;;;;4.80;1.00;;;;;;;17.32;90.92;102025.47;5243901;28;20025;-69
2022/07/07 07:37:05;;;;;;;4.93;1.10;;;;;;;17.49;88.49;102012.31;5241502;28;20113;-70
2022/07/07 07:39:36;;;;;;;7.78;1.40;;;;;;;17.55;87.32;102030.69;5242732;28;20029;-70
2022/07/07 07:42:07;;;;;;;7.80;1.52;;;;;;;17.74;88.78;102016.44;5250509;28;20026;-69
2022/07/07 07:47:29;;;;;;;7.72;1.35;;;;;;;17.70;85.39;102021.25;5243996;28;20037;-70
2022/07/07 07:50:00;;;;;;;5.90;1.30;;;;;;;17.60;85.91;102025.75;5251505;28;20033;-69
2022/07/07 07:52:31;;;;;;;8.35;1.33;;;;;;;17.38;85.99;102041.09;5250376;28;20058;-70
2022/07/07 07:55:04;;;;;;;6.38;1.50;;;;;;;17.23;85.73;102034.34;5240786;28;20508;-69
2022/07/07 07:57:36;;;;;;;4.43;1.30;;;;;;;17.25;86.90;102033.22;5237933;28;20052;-70
2022/07/07 08:00:12;;;;;;;6.53;1.30;;;;;;;17.23;90.26;102069.41;5239547;28;20055;-70
2022/07/07 08:02:44;;;;;;;6.45;1.10;;;;;;;16.40;98.93;102060.97;5255658;28;20040;-68
2022/07/07 08:05:17;;;;;;;5.15;1.00;;;;;;;15.95;100.00;102055.63;5250108;28;20115;-69
2022/07/07 08:07:48;;;;;;;4.93;1.13;;;;;;;15.78;100.00;102048.06;5247379;28;20175;-68
2022/07/07 08:10:19;;;;;;;6.18;1.08;;;;;;;16.00;100.00;102044.53;5252721;28;20390;-68
2022/07/07 08:12:51;;;;;;;7.32;1.63;;;;;;;16.17;100.00;102040.47;5240809;28;20117;-68
2022/07/07 08:15:22;;;;;;;4.10;0.68;;;;;;;16.46;100.00;102049.69;5252591;28;20028;-68
2022/07/07 08:17:53;;;;;;;4.88;1.05;;;;;;;16.81;100.00;102069.31;5237635;28;20018;-68
2022/07/07 08:20:26;;;;;;;6.78;0.90;;;;;;;17.21;97.37;102057.91;5240396;28;20033;-68
2022/07/07 08:22:57;;;;;;;5.88;1.45;;;;;;;17.21;93.68;102072.22;5244125;28;20051;-68
2022/07/07 08:25:28;;;;;;;3.47;0.73;;;;;;;17.32;96.11;102068.63;5238746;28;20068;-68
2022/07/07 08:28:00;;;;;;;5.72;1.27;;;;;;;17.41;95.58;102069.66;5245026;28;20032;-68
2022/07/07 08:30:31;;;;;;;5.50;1.40;;;;;;;17.66;94.55;102063.00;5244287;28;20036;-68
2022/07/07 08:33:05;;;;;;;4.20;1.05;;;;;;;17.64;93.41;102063.13;5245962;28;20025;-68
2022/07/07 08:35:36;;;;;;;6.95;1.33;;;;;;;17.52;91.05;102066.88;5244793;28;20037;-68
2022/07/07 08:38:08;;;;;;;4.25;1.25;;;;;;;17.37;92.80;102070.91;5248121;28;20417;-68
2022/07/07 08:40:40;;;;;;;7.82;1.30;;;;;;;17.13;94.11;102087.38;5244848;28;20095;-68
2022/07/07 08:43:11;;;;;;;5.60;1.13;;;;;;;16.81;97.33;102091.72;5243763;28;20025;-69
2022/07/07 08:45:43;;;;;;;8.77;1.20;;;;;;;16.44;99.98;102080.44;5241105;28;20091;-68
2022/07/07 08:48:14;;;;;;;5.85;1.33;;;;;;;16.23;100.00;102081.22;5246902;28;20029;-68
2022/07/07 08:50:46;;;;;;;9.15;1.17;;;;;;;16.36;100.00;102080.22;5251069;28;20056;-68
2022/07/07 08:53:19;;;;;;;5.45;1.10;;;;;;;16.58;100.00;102076.63;5240205;28;20025;-68
2022/07/07 08:55:51;;;;;;;5.43;1.35;;;;;;;17.04;100.00;102076.34;5235600;28;20489;-68
2022/07/07 08:58:22;;;;;;;7.68;1.17;;;;;;;17.52;97.76;102082.22;5250004;28;20044;-68
2022/07/07 09:00:54;;;;;;;9.70;1.70;;;;;;;17.54;95.76;102081.09;5243580;28;20056;-68
2022/07/07 09:03:28;;;;;;;7.70;1.40;;;;;;;17.48;90.94;102094.28;5239335;28;20029;-69
2022/07/07 09:06:00;;;;;;;5.28;1.23;;;;;;;17.25;90.21;102099.78;5249078;28;20388;-69
2022/07/07 09:08:33;;;;;;;5.78;1.23;;;;;;;17.22;91.86;102102.75;5235772;28;20025;-68
2022/07/07 09:11:08;;;;;;;7.47;1.43;;;;;;;17.01;95.19;102103.59;5239941;28;20112;-69
2022/07/07 09:13:39;;;;;;;6.28;1.33;;;;;;;16.89;100.00;102103.75;5241904;28;20029;-68
2022/07/07 09:16:16;;;;;;;5.68;1.40;;;;;;;16.77;100.00;102111.00;5246621;28;20029;-68
2022/07/07 09:18:48;;;;;;;6.65;1.52;;;;;;;16.92;98.94;102106.19;5237035;28;20028;-68
2022/07/07 09:21:29;;;;;;;7.30;1.20;;;;;;;17.28;94.65;102109.47;5242317;28;20022;-69
2022/07/07 09:24:03;;;;;;;4.80;1.10;;;;;;;17.52;93.19;102106.53;5240502;28;20033;-68
2022/07/07 09:26:34;;;;;;;6.60;1.42;;;;;;;17.74;93.40;102109.09;5241932;28;20024;-68
2022/07/07 09:29:13;;;;;;;4.60;1.30;;;;;;;18.16;92.10;102114.44;5240240;28;20037;-69
2022/07/07 09:31:58;;;;;;;5.30;1.35;;;;;;;18.31;88.39;102114.88;5246017;28;20028;-68
2022/07/07 09:34:36;;;;;;;10.38;1.48;;;;;;;18.16;86.71;102116.25;5237698;28;20037;-68
2022/07/07 09:39:57;;;;;;;5.28;1.00;;;;;;;18.28;86.04;102130.53;5240123;28;20033;-69
2022/07/07 09:42:31;;;;;;;6.15;1.27;;;;;;;18.46;84.80;102128.03;5244783;28;20036;-69
2022/07/07 09:45:12;;;;;;;6.05;0.95;;;;;;;18.74;83.80;102140.78;5240366;28;20556;-69
2022/07/07 09:47:44;;;;;;;4.13;1.30;;;;;;;18.87;80.49;102137.84;5248368;28;20030;-69
2022/07/07 09:50:15;;;;;;;6.03;1.00;;;;;;;18.75;81.80;102147.88;5238902;28;20040;-69
2022/07/07 09:52:47;;;;;;;3.45;1.00;;;;;;;18.57;81.59;102146.84;5236868;28;20029;-68
2022/07/07 09:55:18;;;;;;;3.15;0.90;;;;;;;18.11;83.59;102159.91;5247894;28;20119;-69
2022/07/07 09:57:50;;;;;;;4.32;0.82;;;;;;;17.64;86.86;102173.81;5245824;28;20098;-69
2022/07/07 10:00:21;;;;;;;5.45;1.25;;;;;;;17.23;90.30;102180.00;5241669;28;20658;-70
2022/07/07 10:02:54;;;;;;;6.28;1.05;;;;;;;16.87;95.61;102182.06;5240458;28;20036;-70
2022/07/07 10:05:27;;;;;;;5.00;0.90;;;;;;;16.68;99.79;102190.75;5237031;28;20025;-69
2022/07/07 10:07:59;;;;;;;5.20;0.98;;;;;;;16.60;100.00;102179.75;5239782;28;20032;-69
2022/07/07 10:10:31;;;;;;;5.40;0.85;;;;;;;16.65;100.00;102183.78;5241574;28;20036;-69
2022/07/07 10:13:03;;;;;;;6.07;1.15;;;;;;;17.17;100.00;102183.22;5255482;28;20021;-69
2022/07/07 10:15:35;;;;;;;5.00;0.75;;;;;;;17.47;97.77;102181.59;5245782;28;20165;-68
2022/07/07 10:18:08;;;;;;;4.63;0.98;;;;;;;17.64;98.13;102186.41;5241475;28;20141;-68
2022/07/07 10:20:39;;;;;;;4.63;0.82;;;;;;;17.62;95.14;102199.19;5242554;28;20033;-69
2022/07/07 10:23:11;;;;;;;4.53;1.10;;;;;;;17.58;93.77;102195.03;5235914;28;20036;-69
2022/07/07 10:25:59;;;;;;;4.75;0.93;;;;;;;17.47;94.20;102195.09;5238865;28;20080;-68
2022/07/07 10:28:56;;;;;;;6.85;1.10;;;;;;;17.44;94.93;102202.47;5237305;28;20479;-68
2022/07/07 10:31:28;;;;;;;4.10;1.15;;;;;;;17.30;96.68;102208.19;5244162;28;20438;-69
2022/07/07 10:34:06;;;;;;;3.83;0.80;;;;;;;17.30;96.79;102210.88;5240539;28;20029;-68
2022/07/07 10:37:02;;;;;;;4.35;0.80;;;;;;;17.47;96.99;102217.56;5248049;28;20029;-69
2022/07/07 10:39:36;;;;;;;6.53;1.00;;;;;;;17.77;96.84;102213.22;5249733;28;20037;-69
2022/07/07 10:42:17;;;;;;;7.00;0.70;;;;;;;18.17;92.70;102216.06;5248660;28;20067;-69
2022/07/07 10:44:51;;;;;;;4.93;0.80;;;;;;;18.41;89.40;102217.63;5251497;28;20033;-69
2022/07/07 10:47:22;;;;;;;4.80;0.75;;;;;;;18.67;88.25;102209.06;5250406;28;20033;-69
2022/07/07 10:49:55;;;;;;;4.78;1.30;;;;;;;18.73;85.75;102216.59;5250466;28;20383;-69
2022/07/07 10:52:28;;;;;;;4.53;1.00;;;;;;;18.53;84.75;102226.50;5251125;28;20017;-69
2022/07/07 10:55:03;;;;;;;3.58;1.33;;;;;;;17.93;89.64;102242.50;5245261;28;20041;-70
2022/07/07 10:57:43;;;;;;;6.43;1.20;;;;;;;17.19;99.91;102238.72;5247996;28;20527;-68
2022/07/07 11:00:25;;;;;;;3.33;1.13;;;;;;;16.82;100.00;102248.97;5241073;28;20033;-68
2022/07/07 11:02:57;;;;;;;5.95;1.15;;;;;;;16.79;100.00;102252.72;5239308;28;20526;-69
2022/07/07 11:05:30;;;;;;;4.30;0.85;;;;;;;16.73;100.00;102255.91;5246660;28;20069;-69
2022/07/07 11:08:06;;;;;;;6.10;1.17;;;;;;;16.90;100.00;102254.59;5253721;28;20032;-69
2022/07/07 11:10:50;;;;;;;5.32;1.20;;;;;;;17.18;100.00;102249.63;5248469;28;20020;-69
2022/07/07 11:13:34;;;;;;;6.15;1.40;;;;;;;17.58;99.78;102257.97;5241089;28;20048;-69
2022/07/07 11:16:14;;;;;;;5.32;1.60;;;;;;;17.92;100.00;102257.00;5242140;28;20036;-69
2022/07/07 11:18:50;;;;;;;4.88;1.55;;;;;;;18.38;96.38;102259.28;5241308;28;20632;-69
2022/07/07 11:21:37;;;;;;;5.72;1.83;;;;;;;18.59;94.35;102272.75;5238896;28;20017;-69
2022/07/07 11:24:17;;;;;;;7.47;2.30;;;;;;;18.38;91.07;102271.94;5241271;28;20029;-69
2022/07/07 11:27:03;;;;;;;5.30;1.80;;;;;;;18.13;94.25;102278.63;5242009;28;20112;-68
2022/07/07 11:29:35;;;;;;;6.95;2.00;;;;;;;17.50;100.00;102282.06;5237331;28;20369;-69
2022/07/07 11:32:09;;;;;;;7.45;2.05;;;;;;;17.00;100.00;102292.47;5242816;28;20087;-69
2022/07/07 11:34:50;;;;;;;7.70;1.90;;;;;;;16.80;100.00;102288.66;5239991;28;20506;-69
2022/07/07 11:37:27;;;;;;;6.53;2.00;;;;;;;16.79;100.00;102285.06;5241855;28;20025;-69
2022/07/07 11:39:58;;;;;;;7.03;1.88;;;;;;;16.85;100.00;102297.25;5240096;28;20023;-69
2022/07/07 11:42:35;;;;;;;6.13;1.80;;;;;;;16.92;100.00;102287.69;5240749;28;20033;-69
2022/07/07 11:45:23;;;;;;;5.88;1.85;;;;;;;17.08;99.59;102286.44;5250551;28;20025;-69
2022/07/07 11:47:59;;;;;;;4.00;1.58;;;;;;;17.39;100.00;102288.34;5250813;28;20056;-68
2022/07/07 11:50:31;;;;;;;7.82;2.05;;;;;;;17.47;96.28;102293.13;5243848;28;20431;-68
2022/07/07 11:53:05;;;;;;;6.50;1.90;;;;;;;17.69;94.32;102294.03;5238508;28;20061;-68